createdAt,value
2018-12-08T00:00:40.584Z,99785.17
2018-12-08T00:03:21.410Z,99789.48
2018-12-08T00:05:58.665Z,99784.58
2018-12-08T00:08:39.431Z,99777.34
2018-12-08T00:11:18.277Z,99780.45
2018-12-08T00:13:56.876Z,99786.02
2018-12-08T00:16:38.500Z,99790.19
2018-12-08T00:22:22.294Z,99799.46
2018-12-08T00:25:01.036Z,99798.13
2018-12-08T00:27:39.510Z,99796.40
2018-12-08T00:30:27.823Z,99792.63
2018-12-08T00:33:09.451Z,99802.20
2018-12-08T00:35:50.469Z,99799.53
2018-12-08T00:38:30.370Z,99798.43
2018-12-08T00:41:08.604Z,99795.89
2018-12-08T00:46:49.874Z,99801.53
2018-12-08T00:49:28.152Z,99803.17
2018-12-08T00:52:08.989Z,99818.44
2018-12-08T00:54:45.635Z,99810.44
2018-12-08T00:57:26.534Z,99817.11
2018-12-08T01:00:03.737Z,99819.91
2018-12-08T01:05:52.526Z,99819.64
2018-12-08T01:08:33.854Z,99823.58
2018-12-08T01:11:12.892Z,99831.05
2018-12-08T01:13:54.582Z,99819.50
2018-12-08T01:19:34.698Z,99829.11
2018-12-08T01:22:16.561Z,99830.61
2018-12-08T01:24:57.724Z,99837.44
2018-12-08T01:27:40.935Z,99828.56
2018-12-08T01:33:22.698Z,99835.38
2018-12-08T01:36:03.534Z,99836.98
2018-12-08T01:38:45.006Z,99838.05
2018-12-08T01:41:23.748Z,99835.66
2018-12-08T01:44:02.294Z,99837.82
2018-12-08T01:46:41.394Z,99839.66
2018-12-08T01:49:23.094Z,99833.75
2018-12-08T01:52:05.097Z,99845.98
2018-12-08T01:54:43.621Z,99834.48
2018-12-08T02:00:27.467Z,99840.27
2018-12-08T02:06:11.264Z,99841.68
2018-12-08T02:08:52.657Z,99850.48
2018-12-08T02:11:33.807Z,99840.72
2018-12-08T02:14:14.606Z,99839.66
2018-12-08T02:16:55.358Z,99837.75
2018-12-08T02:19:36.563Z,99835.89
2018-12-08T02:22:13.654Z,99834.05
2018-12-08T02:24:54.573Z,99834.25
2018-12-08T02:30:36.462Z,99830.64
2018-12-08T02:33:14.982Z,99836.42
2018-12-08T02:35:54.191Z,99829.96
2018-12-08T02:38:36.679Z,99835.30
2018-12-08T02:44:18.439Z,99831.83
2018-12-08T02:46:57.459Z,99823.98
2018-12-08T02:49:40.847Z,99820.94
2018-12-08T02:52:19.353Z,99836.71
2018-12-08T02:54:58.223Z,99829.01
2018-12-08T02:57:37.571Z,99827.83
2018-12-08T03:00:19.122Z,99835.37
2018-12-08T03:02:58.062Z,99833.00
2018-12-08T03:05:35.390Z,99828.77
2018-12-08T03:11:17.659Z,99825.45
2018-12-08T03:13:56.081Z,99823.66
2018-12-08T03:19:45.921Z,99822.62
2018-12-08T03:25:30.059Z,99818.03
2018-12-08T03:31:09.636Z,99818.73
2018-12-08T03:33:48.409Z,99811.34
2018-12-08T03:36:23.737Z,99805.16
2018-12-08T03:38:59.186Z,99803.56
2018-12-08T03:41:34.828Z,99808.13
2018-12-08T03:44:10.319Z,99799.62
2018-12-08T03:46:45.558Z,99791.09
2018-12-08T03:49:20.892Z,99795.16
2018-12-08T03:51:56.113Z,99796.13
2018-12-08T03:54:37.484Z,99790.42
2018-12-08T03:57:12.707Z,99782.72
2018-12-08T03:59:47.893Z,99788.95
2018-12-08T04:02:23.093Z,99803.17
2018-12-08T04:04:58.521Z,99791.76
2018-12-08T04:07:34.002Z,99792.63
2018-12-08T04:10:12.594Z,99783.28
2018-12-08T04:12:48.015Z,99784.48
2018-12-08T04:15:23.351Z,99784.55
2018-12-08T04:17:58.586Z,99775.44
2018-12-08T04:20:34.146Z,99776.31
2018-12-08T04:23:09.344Z,99776.61
2018-12-08T04:25:44.755Z,99773.94
2018-12-08T04:28:20.205Z,99757.25
2018-12-08T04:30:55.478Z,99758.35
2018-12-08T04:33:30.732Z,99761.32
2018-12-08T04:36:06.098Z,99748.54
2018-12-08T04:38:41.314Z,99757.31
2018-12-08T04:41:16.668Z,99758.35
2018-12-08T04:43:51.922Z,99752.84
2018-12-08T04:46:27.236Z,99751.51
2018-12-08T04:49:02.569Z,99751.74
2018-12-08T04:51:39.153Z,99757.14
2018-12-08T04:54:16.326Z,99750.77
2018-12-08T04:56:57.451Z,99747.03
2018-12-08T04:59:38.281Z,99754.60
2018-12-08T05:02:29.354Z,99735.31
2018-12-08T05:05:05.046Z,99738.28
2018-12-08T05:07:44.221Z,99733.19
2018-12-08T05:10:33.862Z,99736.66
2018-12-08T05:13:12.336Z,99740.16
2018-12-08T05:18:59.862Z,99740.42
2018-12-08T05:24:40.499Z,99734.28
2018-12-08T05:27:25.366Z,99734.81
2018-12-08T05:30:20.441Z,99734.05
2018-12-08T05:32:55.708Z,99714.55
2018-12-08T05:38:36.576Z,99722.62
2018-12-08T05:41:11.843Z,99717.05
2018-12-08T05:43:47.078Z,99712.00
2018-12-08T05:46:34.757Z,99710.14
2018-12-08T05:49:21.170Z,99709.66
2018-12-08T05:51:56.501Z,99705.45
2018-12-08T05:54:31.778Z,99690.29
2018-12-08T05:57:06.979Z,99696.78
2018-12-08T05:59:45.372Z,99687.62
2018-12-08T06:02:24.584Z,99697.38
2018-12-08T06:08:00.528Z,99695.03
2018-12-08T06:10:35.896Z,99700.44
2018-12-08T06:13:11.339Z,99690.82
2018-12-08T06:15:52.848Z,99700.17
2018-12-08T06:24:45.623Z,99698.17
2018-12-08T06:27:29.147Z,99687.05
2018-12-08T06:30:04.968Z,99682.50
2018-12-08T06:32:40.204Z,99677.45
2018-12-08T06:35:15.467Z,99685.17
2018-12-08T06:37:50.823Z,99686.03
2018-12-08T06:40:29.300Z,99672.73
2018-12-08T06:43:03.487Z,99670.11
2018-12-08T06:45:38.889Z,99667.97
2018-12-08T06:48:24.497Z,99673.31
2018-12-08T06:50:59.776Z,99662.88
2018-12-08T06:53:47.261Z,99675.40
2018-12-08T06:56:22.493Z,99670.23
2018-12-08T06:58:57.859Z,99674.73
2018-12-08T07:01:33.103Z,99664.22
2018-12-08T07:04:08.318Z,99666.01
2018-12-08T07:06:43.579Z,99659.03
2018-12-08T07:09:18.994Z,99655.03
2018-12-08T07:11:54.396Z,99654.77
2018-12-08T07:14:34.809Z,99659.33
2018-12-08T07:17:10.234Z,99670.07
2018-12-08T07:19:45.621Z,99656.16
2018-12-08T07:22:21.112Z,99653.38
2018-12-08T07:24:56.528Z,99655.75
2018-12-08T07:27:32.005Z,99641.59
2018-12-08T07:30:09.799Z,99651.50
2018-12-08T07:32:45.196Z,99642.74
2018-12-08T07:35:20.411Z,99641.67
2018-12-08T07:37:55.803Z,99640.98
2018-12-08T07:40:31.165Z,99649.34
2018-12-08T07:43:06.506Z,99636.80
2018-12-08T07:45:41.885Z,99638.77
2018-12-08T07:48:22.340Z,99641.25
2018-12-08T07:50:57.793Z,99639.14
2018-12-08T07:53:33.114Z,99634.09
2018-12-08T07:56:08.410Z,99637.36
2018-12-08T07:58:43.809Z,99617.88
2018-12-08T08:01:19.237Z,99620.65
2018-12-08T08:03:54.587Z,99623.38
2018-12-08T08:06:29.809Z,99620.44
2018-12-08T08:09:06.742Z,99621.83
2018-12-08T08:11:42.120Z,99620.75
2018-12-08T08:14:17.497Z,99619.25
2018-12-08T08:16:52.917Z,99617.63
2018-12-08T08:19:28.432Z,99615.75
2018-12-08T08:22:03.828Z,99616.80
2018-12-08T08:24:39.224Z,99615.45
2018-12-08T08:27:14.568Z,99605.89
2018-12-08T08:29:50.087Z,99605.89
2018-12-08T08:32:25.482Z,99600.06
2018-12-08T08:35:00.699Z,99598.19
2018-12-08T08:37:35.951Z,99593.13
2018-12-08T08:40:12.496Z,99600.55
2018-12-08T08:42:47.680Z,99585.21
2018-12-08T08:45:22.942Z,99586.80
2018-12-08T08:47:58.289Z,99582.30
2018-12-08T08:50:33.666Z,99577.94
2018-12-08T08:53:09.024Z,99583.83
2018-12-08T08:55:48.185Z,99584.13
2018-12-08T08:58:30.553Z,99581.69
2018-12-08T09:01:09.727Z,99570.70
2018-12-08T09:03:45.008Z,99567.98
2018-12-08T09:06:26.826Z,99564.78
2018-12-08T09:09:02.113Z,99573.52
2018-12-08T09:12:00.649Z,99572.14
2018-12-08T09:14:35.844Z,99578.28
2018-12-08T09:17:16.682Z,99561.66
2018-12-08T09:22:51.053Z,99562.59
2018-12-08T09:25:44.656Z,99544.69
2018-12-08T09:28:26.940Z,99558.92
2018-12-08T09:31:02.367Z,99562.64
2018-12-08T09:33:37.687Z,99550.96
2018-12-08T09:36:13.051Z,99546.70
2018-12-08T09:38:49.639Z,99544.33
2018-12-08T09:41:25.043Z,99536.31
2018-12-08T09:44:00.601Z,99537.95
2018-12-08T09:46:35.926Z,99532.91
2018-12-08T09:49:11.325Z,99542.50
2018-12-08T09:51:49.937Z,99526.17
2018-12-08T09:54:25.522Z,99518.65
2018-12-08T09:57:00.897Z,99514.30
2018-12-08T10:02:42.465Z,99519.35
2018-12-08T10:05:18.911Z,99515.92
2018-12-08T10:07:54.305Z,99515.39
2018-12-08T10:10:29.678Z,99509.00
2018-12-08T10:13:05.214Z,99515.02
2018-12-08T10:15:40.422Z,99510.39
2018-12-08T10:18:15.804Z,99503.50
2018-12-08T10:20:51.023Z,99494.20
2018-12-08T10:23:26.326Z,99510.23
2018-12-08T10:26:01.699Z,99498.00
2018-12-08T10:28:37.918Z,99498.09
2018-12-08T10:31:13.474Z,99489.12
2018-12-08T10:33:48.963Z,99491.08
2018-12-08T10:36:24.194Z,99483.94
2018-12-08T10:38:59.574Z,99496.52
2018-12-08T10:41:35.047Z,99492.80
2018-12-08T10:44:10.500Z,99492.72
2018-12-08T10:46:45.883Z,99488.63
2018-12-08T10:49:21.188Z,99481.85
2018-12-08T10:51:56.588Z,99483.64
2018-12-08T10:54:33.904Z,99481.97
2018-12-08T10:57:09.529Z,99483.26
2018-12-08T10:59:44.907Z,99467.72
2018-12-08T11:02:25.627Z,99472.17
2018-12-08T11:05:00.856Z,99473.02
2018-12-08T11:07:36.239Z,99459.45
2018-12-08T11:10:12.638Z,99448.09
2018-12-08T11:12:48.999Z,99440.88
2018-12-08T11:15:25.366Z,99439.74
2018-12-08T11:18:02.423Z,99433.22
2018-12-08T11:20:37.894Z,99441.53
2018-12-08T11:23:13.511Z,99426.83
2018-12-08T11:25:48.704Z,99439.61
2018-12-08T11:28:24.143Z,99434.31
2018-12-08T11:30:59.447Z,99434.84
2018-12-08T11:33:35.848Z,99430.84
2018-12-08T11:36:11.175Z,99424.42
2018-12-08T11:38:46.651Z,99431.09
2018-12-08T11:41:21.847Z,99416.69
2018-12-08T11:43:57.087Z,99426.88
2018-12-08T11:46:32.375Z,99428.42
2018-12-08T11:49:07.645Z,99426.00
2018-12-08T11:51:43.020Z,99425.96
2018-12-08T11:54:20.488Z,99421.44
2018-12-08T11:56:55.855Z,99432.73
2018-12-08T11:59:31.194Z,99421.79
2018-12-08T12:02:06.592Z,99419.94
2018-12-08T12:04:43.905Z,99419.94
2018-12-08T12:07:19.359Z,99417.27
2018-12-08T12:09:56.412Z,99417.02
2018-12-08T12:12:44.415Z,99414.68
2018-12-08T12:18:26.299Z,99420.78
2018-12-08T12:21:06.869Z,99410.09
2018-12-08T12:23:48.145Z,99420.03
2018-12-08T12:26:24.819Z,99418.73
2018-12-08T12:29:01.782Z,99412.09
2018-12-08T12:31:36.988Z,99408.63
2018-12-08T12:34:12.328Z,99405.45
2018-12-08T12:36:48.913Z,99416.73
2018-12-08T12:39:24.385Z,99402.39
2018-12-08T12:47:42.722Z,99400.63
2018-12-08T12:50:23.722Z,99402.05
2018-12-08T12:53:05.089Z,99405.30
2018-12-08T12:55:45.090Z,99405.84
2018-12-08T12:58:23.897Z,99397.89
2018-12-08T13:01:05.426Z,99409.72
2018-12-08T13:03:46.551Z,99410.87
2018-12-08T13:06:25.162Z,99407.69
2018-12-08T13:09:02.140Z,99339.48
2018-12-08T13:11:44.894Z,99402.98
2018-12-08T13:14:26.388Z,99408.84
2018-12-08T13:17:07.529Z,99405.70
2018-12-08T13:19:48.651Z,99395.03
2018-12-08T13:22:29.524Z,99410.32
2018-12-08T13:25:21.584Z,99405.58
2018-12-08T13:31:03.810Z,99399.97
2018-12-08T13:33:46.087Z,99407.45
2018-12-08T13:36:27.009Z,99396.27
2018-12-08T13:42:13.651Z,99405.45
2018-12-08T13:45:00.160Z,99398.22
2018-12-08T13:47:41.607Z,99401.47
2018-12-08T13:50:22.762Z,99403.38
2018-12-08T13:53:04.452Z,99399.94
2018-12-08T13:55:45.746Z,99397.00
2018-12-08T13:58:26.714Z,99416.03
2018-12-08T14:01:07.946Z,99394.61
2018-12-08T14:03:44.907Z,99407.48
2018-12-08T14:06:26.562Z,99390.94
2018-12-08T14:09:08.293Z,99403.53
2018-12-08T14:11:49.838Z,99403.02
2018-12-08T14:14:35.941Z,99403.30
2018-12-08T14:17:17.116Z,99407.89
2018-12-08T14:19:52.310Z,99410.54
2018-12-08T14:22:33.107Z,99407.52
2018-12-08T14:25:08.345Z,99412.02
2018-12-08T14:27:44.206Z,99414.95
2018-12-08T14:30:19.535Z,99399.97
2018-12-08T14:32:54.795Z,99407.48
2018-12-08T14:35:30.160Z,99406.72
2018-12-08T14:38:05.640Z,99412.33
2018-12-08T14:40:40.938Z,99413.09
2018-12-08T14:43:16.345Z,99405.83
2018-12-08T14:45:51.629Z,99414.34
2018-12-08T14:48:27.163Z,99408.98
2018-12-08T14:51:02.753Z,99413.83
2018-12-08T14:53:38.109Z,99407.11
2018-12-08T14:56:13.791Z,99412.02
2018-12-08T14:58:50.132Z,99399.77
2018-12-08T15:01:25.513Z,99408.06
2018-12-08T15:04:00.966Z,99401.91
2018-12-08T15:06:54.644Z,99388.03
2018-12-08T15:09:39.869Z,99415.36
2018-12-08T15:12:20.860Z,99405.50
2018-12-08T15:14:56.204Z,99394.79
2018-12-08T15:20:34.622Z,99405.81
2018-12-08T15:23:09.786Z,99397.23
2018-12-08T15:25:45.004Z,99404.98
2018-12-08T15:31:26.237Z,99418.34
2018-12-08T15:34:01.634Z,99407.09
2018-12-08T15:36:36.970Z,99415.10
2018-12-08T15:39:12.606Z,99405.22
2018-12-08T15:41:48.022Z,99406.05
2018-12-08T15:44:23.547Z,99420.48
2018-12-08T15:46:59.046Z,99422.36
2018-12-08T15:49:34.343Z,99412.73
2018-12-08T15:52:09.763Z,99418.60
2018-12-08T15:54:44.961Z,99426.38
2018-12-08T15:57:20.258Z,99419.88
2018-12-08T16:03:01.496Z,99427.82
2018-12-08T16:05:40.412Z,99425.11
2018-12-08T16:08:22.482Z,99403.66
2018-12-08T16:14:03.947Z,99418.36
2018-12-08T16:16:45.050Z,99426.36
2018-12-08T16:19:20.454Z,99414.02
2018-12-08T16:28:13.716Z,99427.38
2018-12-08T16:30:49.132Z,99427.31
2018-12-08T16:33:24.565Z,99426.98
2018-12-08T16:36:06.004Z,99434.15
2018-12-08T16:41:44.714Z,99435.34
2018-12-08T16:44:25.927Z,99435.84
2018-12-08T16:47:01.271Z,99431.55
2018-12-08T16:49:40.222Z,99425.72
2018-12-08T16:52:31.956Z,99427.31
2018-12-08T17:01:25.988Z,99426.55
2018-12-08T17:07:01.423Z,99423.59
2018-12-08T17:12:59.716Z,99419.51
2018-12-08T17:18:44.697Z,99399.37
2018-12-08T17:21:27.349Z,99395.87
2018-12-08T17:24:02.521Z,99405.45
2018-12-08T17:29:43.857Z,99413.66
2018-12-08T17:32:19.095Z,99406.20
2018-12-08T17:34:55.312Z,99394.42
2018-12-08T17:37:30.788Z,99383.44
2018-12-08T17:40:16.274Z,99391.70
2018-12-08T17:42:57.299Z,99373.82
2018-12-08T17:45:32.532Z,99378.63
2018-12-08T17:48:17.589Z,99379.13
2018-12-08T17:50:52.981Z,99366.30
2018-12-08T17:53:31.618Z,99367.42
2018-12-08T17:56:12.683Z,99364.59
2018-12-08T17:58:48.057Z,99366.22
2018-12-08T18:01:24.898Z,99349.73
2018-12-08T18:07:06.061Z,99343.42
2018-12-08T18:09:41.408Z,99343.16
2018-12-08T18:18:26.166Z,99324.20
2018-12-08T18:21:01.630Z,99332.02
2018-12-08T18:23:43.040Z,99321.81
2018-12-08T18:26:30.312Z,99324.46
2018-12-08T18:29:23.831Z,99321.53
2018-12-08T18:34:58.785Z,99306.56
2018-12-08T18:37:34.128Z,99303.83
2018-12-08T18:40:09.921Z,99304.30
2018-12-08T18:43:01.410Z,99297.88
2018-12-08T18:45:41.413Z,99301.63
2018-12-08T18:48:16.983Z,99295.48
2018-12-08T18:51:03.792Z,99285.30
2018-12-08T18:59:53.824Z,99282.98
2018-12-08T19:05:34.472Z,99263.14
2018-12-08T19:08:10.079Z,99260.70
2018-12-08T19:11:03.936Z,99252.98
2018-12-08T19:13:48.248Z,99245.23
2018-12-08T19:16:27.051Z,99245.23
2018-12-08T19:19:24.751Z,99242.05
2018-12-08T19:22:13.299Z,99241.25
2018-12-08T19:27:54.119Z,99224.14
2018-12-08T19:30:29.414Z,99227.41
2018-12-08T19:33:14.512Z,99217.52
2018-12-08T19:35:52.969Z,99204.94
2018-12-08T19:38:46.040Z,99196.38
2018-12-08T19:47:38.265Z,99175.73
2018-12-08T19:50:16.817Z,99178.20
2018-12-08T19:58:30.188Z,99156.89
2018-12-08T20:01:09.604Z,99145.13
2018-12-08T20:03:48.760Z,99143.78
2018-12-08T20:09:29.973Z,99126.70
2018-12-08T20:12:05.362Z,99118.41
2018-12-08T20:14:40.704Z,99114.67
2018-12-08T20:17:15.911Z,99102.63
2018-12-08T20:19:51.528Z,99091.91
2018-12-08T20:22:26.889Z,99093.77
2018-12-08T20:25:02.396Z,99080.09
2018-12-08T20:27:37.732Z,99075.52
2018-12-08T20:30:13.097Z,99075.75
2018-12-08T20:32:48.527Z,99063.17
2018-12-08T20:35:23.722Z,99060.48
2018-12-08T20:37:58.984Z,99057.80
2018-12-08T20:43:39.862Z,99057.27
2018-12-08T20:46:15.240Z,99047.59
2018-12-08T20:48:54.378Z,99041.67
2018-12-08T20:51:29.619Z,99034.89
2018-12-08T20:54:05.023Z,99022.48
2018-12-08T20:56:40.344Z,99015.16
2018-12-08T20:59:15.881Z,98999.59
2018-12-08T21:01:51.185Z,98987.81
2018-12-08T21:04:26.414Z,98980.56
2018-12-08T21:07:01.866Z,98973.03
2018-12-08T21:09:37.157Z,98943.08
2018-12-08T21:12:12.459Z,98940.97
2018-12-08T21:14:47.827Z,98926.22
2018-12-08T21:17:23.182Z,98916.07
2018-12-08T21:19:58.960Z,98905.39
2018-12-08T21:22:34.341Z,98895.20
2018-12-08T21:25:09.882Z,98876.22
2018-12-08T21:27:45.266Z,98867.69
2018-12-08T21:30:20.469Z,98864.19
2018-12-08T21:32:55.750Z,98841.48
2018-12-08T21:35:33.590Z,98834.24
2018-12-08T21:38:09.206Z,98819.55
2018-12-08T21:43:50.896Z,98798.98
2018-12-08T21:46:32.435Z,98789.12
2018-12-08T21:49:23.948Z,98781.91
2018-12-08T21:52:15.996Z,98766.94
2018-12-08T21:55:03.190Z,98752.26
2018-12-08T21:57:38.418Z,98744.50
2018-12-08T22:00:13.862Z,98722.84
2018-12-08T22:02:49.513Z,98721.52
2018-12-08T22:05:24.785Z,98710.28
2018-12-08T22:08:02.194Z,98707.10
2018-12-08T22:10:37.538Z,98690.52
2018-12-08T22:13:12.725Z,98683.33
2018-12-08T22:15:48.878Z,98675.03
2018-12-08T22:18:24.191Z,98666.19
2018-12-08T22:21:00.957Z,98662.45
2018-12-08T22:23:36.430Z,98661.39
2018-12-08T22:26:11.693Z,98656.84
2018-12-08T22:28:47.150Z,98639.18
2018-12-08T22:31:22.511Z,98627.97
2018-12-08T22:33:57.840Z,98623.68
2018-12-08T22:36:33.082Z,98591.57
2018-12-08T22:39:08.486Z,98599.59
2018-12-08T22:41:43.739Z,98592.36
2018-12-08T22:44:19.124Z,98597.98
2018-12-08T22:46:54.477Z,98616.16
2018-12-08T22:49:29.811Z,98613.77
2018-12-08T22:52:05.315Z,98614.03
2018-12-08T22:54:47.943Z,98596.13
2018-12-08T22:57:24.004Z,98597.19
2018-12-08T22:59:59.277Z,98593.17
2018-12-08T23:02:34.665Z,98587.54
2018-12-08T23:05:11.307Z,98573.33
2018-12-08T23:07:46.680Z,98580.29
2018-12-08T23:10:21.926Z,98569.30
2018-12-08T23:12:57.349Z,98561.81
2018-12-08T23:15:32.803Z,98554.05
2018-12-08T23:18:07.961Z,98553.47
2018-12-08T23:20:43.406Z,98552.63
2018-12-08T23:23:18.791Z,98543.01
2018-12-08T23:25:54.165Z,98532.28
2018-12-08T23:28:29.384Z,98527.72
2018-12-08T23:31:04.751Z,98517.55
2018-12-08T23:33:40.188Z,98507.07
2018-12-08T23:36:15.543Z,98506.26
2018-12-08T23:38:50.779Z,98508.66
2018-12-08T23:41:25.965Z,98500.34
2018-12-08T23:44:01.378Z,98487.50
2018-12-08T23:46:36.645Z,98479.19
2018-12-08T23:49:13.273Z,98478.69
2018-12-08T23:51:48.713Z,98469.31
2018-12-08T23:54:23.912Z,98469.05
2018-12-08T23:56:59.448Z,98464.74
2018-12-08T23:59:34.786Z,98472.50
